createdAt,value
2023-10-12T00:00:29.012Z,98539.23
2023-10-12T00:02:54.553Z,98538.67
2023-10-12T00:05:00.345Z,98536.31
2023-10-12T00:07:16.755Z,98537.66
2023-10-12T00:09:21.854Z,98532.05
2023-10-12T00:11:38.250Z,98531.44
2023-10-12T00:13:43.425Z,98526.34
2023-10-12T00:15:53.668Z,98528.77
2023-10-12T00:17:59.716Z,98530.67
2023-10-12T00:20:02.609Z,98532.59
2023-10-12T00:22:12.883Z,98524.36
2023-10-12T00:24:19.014Z,98523.34
2023-10-12T00:26:23.613Z,98522.84
2023-10-12T00:28:38.948Z,98516.15
2023-10-12T00:30:43.208Z,98515.98
2023-10-12T00:32:45.902Z,98520.29
2023-10-12T00:34:50.012Z,98517.17
2023-10-12T00:36:59.127Z,98515.30
2023-10-12T00:39:02.263Z,98515.18
2023-10-12T00:41:05.717Z,98518.84
2023-10-12T00:43:15.945Z,98515.48
2023-10-12T00:45:29.130Z,98516.80
2023-10-12T00:47:45.555Z,98513.70
2023-10-12T00:49:50.364Z,98509.69
2023-10-12T00:51:55.751Z,98513.98
2023-10-12T00:53:58.558Z,98505.52
2023-10-12T00:56:03.129Z,98503.25
2023-10-12T00:58:06.891Z,98498.04
2023-10-12T01:00:16.703Z,98493.14
2023-10-12T01:02:24.977Z,98484.51
2023-10-12T01:04:28.636Z,98482.69
2023-10-12T01:06:32.408Z,98479.70
2023-10-12T01:08:35.919Z,98479.84
2023-10-12T01:10:42.289Z,98474.48
2023-10-12T01:12:46.322Z,98472.48
2023-10-12T01:14:49.489Z,98469.83
2023-10-12T01:16:52.450Z,98468.64
2023-10-12T01:19:06.761Z,98463.05
2023-10-12T01:21:12.675Z,98461.89
2023-10-12T01:23:15.833Z,98461.61
2023-10-12T01:25:22.419Z,98465.03
2023-10-12T01:27:28.409Z,98468.37
2023-10-12T01:29:33.243Z,98463.85
2023-10-12T01:31:37.623Z,98460.23
2023-10-12T01:33:42.676Z,98457.83
2023-10-12T01:35:50.695Z,98458.43
2023-10-12T01:38:01.811Z,98454.89
2023-10-12T01:40:05.384Z,98455.23
2023-10-12T01:42:08.647Z,98451.33
2023-10-12T01:44:12.234Z,98445.43
2023-10-12T01:46:17.633Z,98445.06
2023-10-12T01:48:23.992Z,98440.66
2023-10-12T01:50:26.901Z,98438.02
2023-10-12T01:52:29.452Z,98437.08
2023-10-12T01:54:33.377Z,98437.77
2023-10-12T01:56:36.084Z,98436.17
2023-10-12T01:58:44.349Z,98431.18
2023-10-12T02:00:54.160Z,98430.04
2023-10-12T02:03:28.988Z,98429.14
2023-10-12T02:05:35.685Z,98430.30
2023-10-12T02:07:40.505Z,98433.59
2023-10-12T02:09:45.271Z,98442.71
2023-10-12T02:11:54.697Z,98442.52
2023-10-12T02:14:02.342Z,98440.17
2023-10-12T02:16:06.948Z,98440.27
2023-10-12T02:18:13.045Z,98444.06
2023-10-12T02:20:21.765Z,98447.18
2023-10-12T02:22:29.714Z,98445.85
2023-10-12T02:24:36.386Z,98448.30
2023-10-12T02:26:41.572Z,98447.61
2023-10-12T02:28:47.949Z,98451.58
2023-10-12T02:30:54.735Z,98458.40
2023-10-12T02:33:08.943Z,98455.06
2023-10-12T02:35:13.355Z,98455.91
2023-10-12T02:37:16.063Z,98458.21
2023-10-12T02:39:22.578Z,98455.59
2023-10-12T02:41:27.345Z,98455.75
2023-10-12T02:43:34.849Z,98458.77
2023-10-12T02:45:43.023Z,98462.63
2023-10-12T02:47:52.060Z,98469.46
2023-10-12T02:50:02.101Z,98468.47
2023-10-12T02:52:09.342Z,98469.89
2023-10-12T02:54:16.109Z,98472.23
2023-10-12T02:56:24.149Z,98468.05
2023-10-12T02:58:28.632Z,98469.98
2023-10-12T03:00:35.240Z,98472.96
2023-10-12T03:02:38.008Z,98473.44
2023-10-12T03:04:41.946Z,98473.29
2023-10-12T03:07:05.051Z,98469.46
2023-10-12T03:09:11.973Z,98466.69
2023-10-12T03:11:19.284Z,98463.33
2023-10-12T03:13:27.152Z,98461.62
2023-10-12T03:15:52.234Z,98462.52
2023-10-12T03:17:59.398Z,98464.05
2023-10-12T03:20:18.852Z,98467.85
2023-10-12T03:22:32.655Z,98467.91
2023-10-12T03:24:45.774Z,98468.49
2023-10-12T03:27:03.938Z,98467.50
2023-10-12T03:29:15.740Z,98464.90
2023-10-12T03:31:24.359Z,98463.52
2023-10-12T03:33:36.180Z,98467.28
2023-10-12T03:35:53.276Z,98467.25
2023-10-12T03:38:02.183Z,98467.50
2023-10-12T03:40:25.024Z,98465.71
2023-10-12T03:42:28.708Z,98464.23
2023-10-12T03:44:46.371Z,98467.56
2023-10-12T03:47:05.850Z,98469.71
2023-10-12T03:49:25.850Z,98470.51
2023-10-12T03:51:39.255Z,98471.07
2023-10-12T03:53:57.582Z,98471.70
2023-10-12T03:56:02.439Z,98476.20
2023-10-12T03:58:08.364Z,98478.95
2023-10-12T04:00:11.519Z,98480.29
2023-10-12T04:02:17.173Z,98480.61
2023-10-12T04:04:35.766Z,98485.94
2023-10-12T04:06:57.097Z,98486.69
2023-10-12T04:09:00.811Z,98492.98
2023-10-12T04:11:21.855Z,98499.17
2023-10-12T04:13:30.686Z,98502.91
2023-10-12T04:15:37.965Z,98511.10
2023-10-12T04:17:49.032Z,98515.70
2023-10-12T04:20:04.074Z,98511.86
2023-10-12T04:22:20.558Z,98509.89
2023-10-12T04:24:29.368Z,98507.35
2023-10-12T04:26:35.486Z,98501.99
2023-10-12T04:28:38.189Z,98504.94
2023-10-12T04:31:04.099Z,98489.91
2023-10-12T04:33:18.984Z,98487.60
2023-10-12T04:35:41.888Z,98485.56
2023-10-12T04:37:45.641Z,98493.27
2023-10-12T04:39:57.867Z,98491.11
2023-10-12T04:42:06.010Z,98492.90
2023-10-12T04:44:25.080Z,98493.00
2023-10-12T04:46:27.821Z,98497.80
2023-10-12T04:48:33.067Z,98500.09
2023-10-12T04:50:45.655Z,98488.37
2023-10-12T04:53:08.335Z,98479.33
2023-10-12T04:55:18.760Z,98485.39
2023-10-12T04:57:27.842Z,98502.70
2023-10-12T04:59:53.190Z,98525.56
2023-10-12T05:02:23.295Z,98524.23
2023-10-12T05:04:44.521Z,98531.23
2023-10-12T05:06:48.521Z,98539.59
2023-10-12T05:08:55.875Z,98541.88
2023-10-12T05:10:59.080Z,98544.84
2023-10-12T05:13:07.479Z,98546.52
2023-10-12T05:15:12.844Z,98549.39
2023-10-12T05:17:15.621Z,98550.99
2023-10-12T05:19:19.146Z,98556.66
2023-10-12T05:21:22.910Z,98556.71
2023-10-12T05:23:25.637Z,98558.60
2023-10-12T05:25:34.243Z,98557.95
2023-10-12T05:28:05.856Z,98556.98
2023-10-12T05:30:17.591Z,98552.85
2023-10-12T05:32:25.402Z,98558.14
2023-10-12T05:34:34.557Z,98570.98
2023-10-12T05:36:43.626Z,98568.04
2023-10-12T05:38:50.573Z,98558.69
2023-10-12T05:40:56.849Z,98564.77
2023-10-12T05:43:00.231Z,98574.74
2023-10-12T05:45:21.384Z,98581.73
2023-10-12T05:47:30.797Z,98585.02
2023-10-12T05:49:34.841Z,98582.28
2023-10-12T05:51:38.633Z,98593.41
2023-10-12T05:53:42.217Z,98592.02
2023-10-12T05:55:48.412Z,98591.90
2023-10-12T05:57:51.730Z,98588.98
2023-10-12T05:59:59.431Z,98593.77
2023-10-12T06:02:02.961Z,98600.06
2023-10-12T06:04:07.723Z,98599.77
2023-10-12T06:06:10.765Z,98601.70
2023-10-12T06:08:13.546Z,98605.64
2023-10-12T06:10:16.246Z,98609.98
2023-10-12T06:12:22.387Z,98618.14
2023-10-12T06:14:25.474Z,98610.39
2023-10-12T06:16:31.932Z,98618.64
2023-10-12T06:18:38.723Z,98633.73
2023-10-12T06:20:47.054Z,98639.55
2023-10-12T06:22:51.172Z,98642.52
2023-10-12T06:24:54.271Z,98634.27
2023-10-12T06:26:59.422Z,98628.23
2023-10-12T06:29:02.880Z,98642.77
2023-10-12T06:31:07.015Z,98651.73
2023-10-12T06:33:13.924Z,98654.83
2023-10-12T06:35:22.404Z,98657.63
2023-10-12T06:37:44.588Z,98660.88
2023-10-12T06:40:07.535Z,98673.45
2023-10-12T06:42:27.361Z,98676.41
2023-10-12T06:44:34.406Z,98676.13
2023-10-12T06:46:46.623Z,98672.55
2023-10-12T06:48:59.615Z,98643.34
2023-10-12T06:51:12.072Z,98612.51
2023-10-12T06:53:17.776Z,98640.98
2023-10-12T06:55:29.447Z,98655.63
2023-10-12T06:57:37.561Z,98639.50
2023-10-12T06:59:46.329Z,98619.92
2023-10-12T07:01:50.052Z,98650.77
2023-10-12T07:03:54.139Z,98671.84
2023-10-12T07:05:59.120Z,98684.91
2023-10-12T07:08:03.732Z,98695.58
2023-10-12T07:10:07.172Z,98704.36
2023-10-12T07:12:13.419Z,98711.91
2023-10-12T07:14:16.153Z,98715.02
2023-10-12T07:16:22.521Z,98701.95
2023-10-12T07:18:25.357Z,98681.98
2023-10-12T07:20:49.556Z,98674.01
2023-10-12T07:22:52.280Z,98677.73
2023-10-12T07:24:55.785Z,98655.35
2023-10-12T07:27:13.093Z,98670.30
2023-10-12T07:29:35.712Z,98667.53
2023-10-12T07:31:43.605Z,98681.30
2023-10-12T07:33:56.465Z,98666.20
2023-10-12T07:36:18.360Z,98670.05
2023-10-12T07:38:38.108Z,98684.79
2023-10-12T07:40:56.707Z,98697.70
2023-10-12T07:43:05.468Z,98689.11
2023-10-12T07:45:10.917Z,98704.61
2023-10-12T07:47:20.076Z,98726.44
2023-10-12T07:49:40.165Z,98722.14
2023-10-12T07:52:00.574Z,98735.52
2023-10-12T07:54:26.258Z,98743.34
2023-10-12T07:56:35.166Z,98747.31
2023-10-12T07:58:40.157Z,98737.01
2023-10-12T08:00:55.307Z,98735.17
2023-10-12T08:03:08.752Z,98748.52
2023-10-12T08:05:18.060Z,98753.05
2023-10-12T08:07:27.564Z,98750.60
2023-10-12T08:09:33.004Z,98757.67
2023-10-12T08:11:43.800Z,98754.95
2023-10-12T08:13:50.150Z,98771.98
2023-10-12T08:15:55.458Z,98760.95
2023-10-12T08:18:14.159Z,98747.98
2023-10-12T08:20:35.322Z,98722.94
2023-10-12T08:22:39.352Z,98719.55
2023-10-12T08:24:41.964Z,98719.26
2023-10-12T08:26:44.752Z,98725.93
2023-10-12T08:28:56.752Z,98720.77
2023-10-12T08:31:03.178Z,98732.09
2023-10-12T08:33:15.494Z,98747.70
2023-10-12T08:35:38.484Z,98761.84
2023-10-12T08:38:01.455Z,98776.36
2023-10-12T08:40:20.066Z,98778.35
2023-10-12T08:42:24.301Z,98776.48
2023-10-12T08:44:27.008Z,98766.45
2023-10-12T08:46:41.710Z,98764.23
2023-10-12T08:48:54.585Z,98763.46
2023-10-12T08:51:00.133Z,98757.73
2023-10-12T08:53:08.691Z,98761.96
2023-10-12T08:55:14.337Z,98775.98
2023-10-12T08:57:34.336Z,98776.69
2023-10-12T08:59:43.666Z,98776.52
2023-10-12T09:01:47.086Z,98775.14
2023-10-12T09:03:54.625Z,98772.69
2023-10-12T09:05:59.895Z,98775.85
2023-10-12T09:08:14.123Z,98766.77
2023-10-12T09:10:37.626Z,98748.21
2023-10-12T09:12:41.756Z,98727.84
2023-10-12T09:14:44.992Z,98725.52
2023-10-12T09:16:55.892Z,98738.91
2023-10-12T09:19:01.244Z,98750.83
2023-10-12T09:21:04.043Z,98753.86
2023-10-12T09:23:13.494Z,98756.00
2023-10-12T09:25:35.671Z,98760.85
2023-10-12T09:27:39.072Z,98757.42
2023-10-12T09:30:10.984Z,98755.82
2023-10-12T09:32:21.282Z,98751.00
2023-10-12T09:34:32.338Z,98741.11
2023-10-12T09:36:38.761Z,98728.81
2023-10-12T09:38:42.583Z,98717.65
2023-10-12T09:40:53.531Z,98734.05
2023-10-12T09:43:08.396Z,98721.90
2023-10-12T09:45:29.559Z,98708.59
2023-10-12T09:47:45.691Z,98715.40
2023-10-12T09:49:55.631Z,98713.45
2023-10-12T09:52:02.593Z,98702.36
2023-10-12T09:54:19.692Z,98700.46
2023-10-12T09:56:29.620Z,98707.15
2023-10-12T09:58:35.224Z,98709.86
2023-10-12T10:00:59.520Z,98715.45
2023-10-12T10:03:09.883Z,98719.46
2023-10-12T10:05:50.280Z,98734.40
2023-10-12T10:07:59.240Z,98737.48
2023-10-12T10:10:09.383Z,98736.40
2023-10-12T10:12:16.812Z,98743.09
2023-10-12T10:14:21.709Z,98748.70
2023-10-12T10:16:28.152Z,98750.94
2023-10-12T10:18:30.925Z,98752.87
2023-10-12T10:20:57.425Z,98750.02
2023-10-12T10:23:07.123Z,98759.09
2023-10-12T10:25:18.788Z,98760.53
2023-10-12T10:27:28.186Z,98755.35
2023-10-12T10:29:55.180Z,98735.36
2023-10-12T10:31:58.476Z,98734.36
2023-10-12T10:34:07.386Z,98739.52
2023-10-12T10:36:18.860Z,98749.27
2023-10-12T10:38:22.282Z,98749.52
2023-10-12T10:40:49.198Z,98743.17
2023-10-12T10:43:01.155Z,98748.08
2023-10-12T10:45:14.149Z,98747.77
2023-10-12T10:47:18.739Z,98753.63
2023-10-12T10:51:30.690Z,98751.89
2023-10-12T10:53:38.066Z,98751.55
2023-10-12T10:55:41.096Z,98743.73
2023-10-12T10:57:43.819Z,98755.86
2023-10-12T10:59:47.964Z,98746.29
2023-10-12T11:01:52.306Z,98748.29
2023-10-12T11:04:02.049Z,98745.35
2023-10-12T11:06:10.179Z,98746.91
2023-10-12T11:08:22.278Z,98749.86
2023-10-12T11:10:33.061Z,98751.69
2023-10-12T11:12:40.851Z,98748.42
2023-10-12T11:14:53.517Z,98753.14
2023-10-12T11:16:58.114Z,98754.22
2023-10-12T11:19:02.248Z,98751.88
2023-10-12T11:21:05.607Z,98743.41
2023-10-12T11:23:11.453Z,98742.27
2023-10-12T11:25:19.336Z,98742.25
2023-10-12T11:27:36.074Z,98744.68
2023-10-12T11:29:51.419Z,98751.96
2023-10-12T11:32:12.321Z,98755.77
2023-10-12T11:34:25.443Z,98756.58
2023-10-12T11:36:28.909Z,98758.09
2023-10-12T11:38:32.096Z,98758.23
2023-10-12T11:40:35.979Z,98756.39
2023-10-12T11:42:54.493Z,98758.70
2023-10-12T11:45:07.754Z,98758.84
2023-10-12T11:47:38.536Z,98764.08
2023-10-12T11:50:00.000Z,98767.09
2023-10-12T11:52:15.592Z,98773.07
2023-10-12T11:54:23.108Z,98769.16
2023-10-12T11:56:26.957Z,98763.89
2023-10-12T11:58:32.258Z,98761.99
2023-10-12T12:00:38.258Z,98758.02
2023-10-12T12:02:43.463Z,98748.09
2023-10-12T12:04:57.600Z,98742.71
2023-10-12T12:07:11.662Z,98734.02
2023-10-12T12:09:18.337Z,98731.86
2023-10-12T12:11:21.063Z,98725.76
2023-10-12T12:13:24.652Z,98722.53
2023-10-12T12:15:27.656Z,98718.75
2023-10-12T12:17:30.912Z,98714.94
2023-10-12T12:19:34.530Z,98713.59
2023-10-12T12:21:39.021Z,98709.26
2023-10-12T12:23:44.614Z,98707.48
2023-10-12T12:25:47.587Z,98706.75
2023-10-12T12:27:50.528Z,98707.52
2023-10-12T12:30:06.325Z,98704.20
2023-10-12T12:32:19.845Z,98704.09
2023-10-12T12:34:43.268Z,98698.52
2023-10-12T12:36:50.026Z,98694.18
2023-10-12T12:38:58.975Z,98695.02
2023-10-12T12:41:06.803Z,98698.05
2023-10-12T12:43:09.630Z,98699.42
2023-10-12T12:45:12.699Z,98695.86
2023-10-12T12:47:17.850Z,98696.30
2023-10-12T12:49:22.190Z,98699.88
2023-10-12T12:51:25.051Z,98703.45
2023-10-12T12:53:27.856Z,98703.59
2023-10-12T12:55:33.496Z,98714.91
2023-10-12T12:57:40.028Z,98715.48
2023-10-12T12:59:42.908Z,98715.44
2023-10-12T13:01:50.836Z,98715.13
2023-10-12T13:03:56.756Z,98712.90
2023-10-12T13:05:59.735Z,98721.08
2023-10-12T13:08:04.711Z,98723.61
2023-10-12T13:10:12.636Z,98728.18
2023-10-12T13:12:15.510Z,98728.45
2023-10-12T13:14:20.011Z,98725.84
2023-10-12T13:16:22.875Z,98720.60
2023-10-12T13:18:30.562Z,98716.41
2023-10-12T13:20:33.550Z,98717.99
2023-10-12T13:22:37.148Z,98716.27
2023-10-12T13:24:39.796Z,98719.13
2023-10-12T13:26:45.285Z,98719.83
2023-10-12T13:28:47.942Z,98722.70
2023-10-12T13:30:50.707Z,98722.95
2023-10-12T13:33:00.960Z,98718.31
2023-10-12T13:35:18.998Z,98714.42
2023-10-12T13:37:21.549Z,98713.98
2023-10-12T13:39:26.566Z,98713.79
2023-10-12T13:41:31.063Z,98721.16
2023-10-12T13:43:35.969Z,98719.55
2023-10-12T13:45:38.960Z,98716.35
2023-10-12T13:47:41.876Z,98702.96
2023-10-12T13:49:44.545Z,98699.91
2023-10-12T13:51:49.436Z,98695.90
2023-10-12T13:53:52.973Z,98695.71
2023-10-12T13:55:57.530Z,98695.98
2023-10-12T13:58:01.440Z,98698.48
2023-10-12T14:00:05.704Z,98699.61
2023-10-12T14:02:14.658Z,98698.64
2023-10-12T14:04:34.768Z,98692.12
2023-10-12T14:06:37.730Z,98682.34
2023-10-12T14:08:43.812Z,98685.84
2023-10-12T14:10:48.043Z,98686.45
2023-10-12T14:12:54.457Z,98677.61
2023-10-12T14:14:57.077Z,98677.27
2023-10-12T14:17:02.333Z,98672.67
2023-10-12T14:19:05.209Z,98674.62
2023-10-12T14:21:12.462Z,98672.86
2023-10-12T14:23:15.563Z,98671.48
2023-10-12T14:25:26.870Z,98669.23
2023-10-12T14:27:29.772Z,98669.15
2023-10-12T14:29:32.513Z,98672.23
2023-10-12T14:31:35.361Z,98671.72
2023-10-12T14:33:38.471Z,98669.17
2023-10-12T14:35:41.279Z,98665.27
2023-10-12T14:37:44.179Z,98667.45
2023-10-12T14:39:47.648Z,98659.56
2023-10-12T14:41:50.694Z,98655.91
2023-10-12T14:43:54.700Z,98651.86
2023-10-12T14:45:59.707Z,98648.23
2023-10-12T14:48:10.564Z,98641.19
2023-10-12T14:50:17.379Z,98637.65
2023-10-12T14:52:21.866Z,98639.45
2023-10-12T14:54:27.033Z,98635.18
2023-10-12T14:56:31.576Z,98635.55
2023-10-12T14:58:36.475Z,98626.81
2023-10-12T15:00:39.178Z,98624.96
2023-10-12T15:02:42.694Z,98627.75
2023-10-12T15:04:45.477Z,98622.05
2023-10-12T15:06:48.129Z,98608.92
2023-10-12T15:08:54.099Z,98606.52
2023-10-12T15:11:00.588Z,98603.02
2023-10-12T15:13:08.747Z,98599.77
2023-10-12T15:15:19.972Z,98599.82
2023-10-12T15:17:22.780Z,98608.84
2023-10-12T15:19:28.916Z,98612.09
2023-10-12T15:21:37.027Z,98618.27
2023-10-12T15:23:41.373Z,98618.23
2023-10-12T15:25:46.101Z,98620.67
2023-10-12T15:27:52.247Z,98611.17
2023-10-12T15:29:55.000Z,98609.85
2023-10-12T15:31:57.812Z,98616.17
2023-10-12T15:34:00.635Z,98616.23
2023-10-12T15:36:05.959Z,98615.77
2023-10-12T15:38:11.107Z,98618.60
2023-10-12T15:40:19.372Z,98620.36
2023-10-12T15:42:22.120Z,98618.32
2023-10-12T15:44:24.763Z,98619.25
2023-10-12T15:46:27.479Z,98618.23
2023-10-12T15:48:32.904Z,98614.87
2023-10-12T15:50:36.217Z,98615.88
2023-10-12T15:52:39.135Z,98619.27
2023-10-12T15:54:42.169Z,98612.61
2023-10-12T15:56:44.928Z,98618.01
2023-10-12T15:58:52.427Z,98624.55
2023-10-12T16:00:56.915Z,98625.55
2023-10-12T16:03:10.030Z,98630.80
2023-10-12T16:05:13.154Z,98635.08
2023-10-12T16:07:18.773Z,98636.33
2023-10-12T16:09:22.163Z,98636.63
2023-10-12T16:11:25.271Z,98638.76
2023-10-12T16:13:28.595Z,98650.95
2023-10-12T16:15:31.444Z,98648.02
2023-10-12T16:17:36.588Z,98648.02
2023-10-12T16:19:39.451Z,98652.13
2023-10-12T16:21:42.204Z,98657.31
2023-10-12T16:23:46.731Z,98667.71
2023-10-12T16:25:53.527Z,98662.70
2023-10-12T16:27:56.231Z,98658.51
2023-10-12T16:30:00.862Z,98665.13
2023-10-12T16:32:05.275Z,98665.05
2023-10-12T16:34:09.612Z,98669.52
2023-10-12T16:36:13.366Z,98672.36
2023-10-12T16:38:18.502Z,98665.71
2023-10-12T16:40:23.134Z,98674.66
2023-10-12T16:42:25.903Z,98671.44
2023-10-12T16:44:29.320Z,98666.05
2023-10-12T16:46:33.434Z,98662.30
2023-10-12T16:48:36.481Z,98656.70
2023-10-12T16:50:42.103Z,98648.20
2023-10-12T16:52:46.357Z,98644.48
2023-10-12T16:54:49.722Z,98643.00
2023-10-12T16:56:54.050Z,98645.52
2023-10-12T16:58:59.232Z,98656.50
2023-10-12T17:01:01.937Z,98666.97
2023-10-12T17:03:08.087Z,98673.27
2023-10-12T17:05:19.744Z,98670.37
2023-10-12T17:07:25.745Z,98674.80
2023-10-12T17:09:29.144Z,98677.87
2023-10-12T17:11:31.789Z,98671.35
2023-10-12T17:13:34.444Z,98687.84
2023-10-12T17:15:40.801Z,98687.90
2023-10-12T17:17:43.819Z,98672.15
2023-10-12T17:19:47.517Z,98661.41
2023-10-12T17:21:50.551Z,98665.39
2023-10-12T17:23:55.292Z,98662.73
2023-10-12T17:26:00.437Z,98660.65
2023-10-12T17:28:04.272Z,98669.47
2023-10-12T17:30:12.877Z,98674.18
2023-10-12T17:32:18.420Z,98680.64
2023-10-12T17:34:21.785Z,98680.69
2023-10-12T17:36:29.940Z,98679.33
2023-10-12T17:38:33.952Z,98675.64
2023-10-12T17:40:41.149Z,98676.34
2023-10-12T17:42:46.441Z,98677.27
2023-10-12T17:44:49.131Z,98675.85
2023-10-12T17:46:53.601Z,98672.46
2023-10-12T17:48:56.711Z,98668.42
2023-10-12T17:51:00.240Z,98659.34
2023-10-12T17:53:04.357Z,98665.84
2023-10-12T17:55:10.306Z,98661.58
2023-10-12T17:57:13.677Z,98665.20
2023-10-12T17:59:17.436Z,98668.77
2023-10-12T18:01:20.937Z,98672.86
2023-10-12T18:03:24.769Z,98667.35
2023-10-12T18:05:29.181Z,98659.52
2023-10-12T18:07:31.836Z,98655.33
2023-10-12T18:09:35.865Z,98657.95
2023-10-12T18:11:39.171Z,98654.98
2023-10-12T18:13:43.888Z,98655.25
2023-10-12T18:15:49.563Z,98656.29
2023-10-12T18:17:57.086Z,98657.61
2023-10-12T18:20:02.960Z,98665.04
2023-10-12T18:22:06.267Z,98666.16
2023-10-12T18:24:10.492Z,98663.14
2023-10-12T18:26:15.469Z,98660.04
2023-10-12T18:28:20.723Z,98663.27
2023-10-12T18:30:23.674Z,98661.98
2023-10-12T18:32:27.109Z,98662.02
2023-10-12T18:34:30.732Z,98664.52
2023-10-12T18:36:36.717Z,98667.10
2023-10-12T18:38:41.297Z,98672.09
2023-10-12T18:40:45.193Z,98673.61
2023-10-12T18:42:48.074Z,98672.45
2023-10-12T18:44:52.178Z,98677.05
2023-10-12T18:46:58.769Z,98683.58
2023-10-12T18:49:01.749Z,98685.74
2023-10-12T18:51:10.902Z,98682.40
2023-10-12T18:53:14.560Z,98688.14
2023-10-12T18:55:18.447Z,98682.13
2023-10-12T18:57:22.778Z,98686.05
2023-10-12T18:59:29.318Z,98690.73
2023-10-12T19:01:33.307Z,98692.31
2023-10-12T19:03:38.514Z,98696.61
2023-10-12T19:05:41.847Z,98699.64
2023-10-12T19:07:46.006Z,98701.30
2023-10-12T19:09:49.891Z,98698.90
2023-10-12T19:11:53.514Z,98696.61
2023-10-12T19:13:57.498Z,98698.75
2023-10-12T19:16:01.330Z,98702.96
2023-10-12T19:18:11.004Z,98699.53
2023-10-12T19:20:16.794Z,98695.68
2023-10-12T19:22:19.937Z,98695.02
2023-10-12T19:24:23.931Z,98696.21
2023-10-12T19:26:28.634Z,98698.70
2023-10-12T19:28:31.646Z,98699.77
2023-10-12T19:30:36.467Z,98699.36
2023-10-12T19:32:40.120Z,98698.86
2023-10-12T19:34:43.850Z,98703.33
2023-10-12T19:36:46.637Z,98702.13
2023-10-12T19:38:51.071Z,98702.14
2023-10-12T19:40:55.064Z,98708.44
2023-10-12T19:43:02.023Z,98712.15
2023-10-12T19:45:12.466Z,98709.64
2023-10-12T19:47:15.155Z,98707.30
2023-10-12T19:49:18.715Z,98703.02
2023-10-12T19:51:25.763Z,98705.62
2023-10-12T19:53:30.418Z,98701.55
2023-10-12T19:55:34.665Z,98695.08
2023-10-12T19:57:42.369Z,98697.00
2023-10-12T19:59:47.732Z,98699.70
2023-10-12T20:01:52.925Z,98699.77
2023-10-12T20:03:56.733Z,98701.05
2023-10-12T20:06:05.676Z,98702.65
2023-10-12T20:08:12.088Z,98695.55
2023-10-12T20:10:16.889Z,98687.86
2023-10-12T20:12:19.739Z,98689.36
2023-10-12T20:14:23.690Z,98692.70
2023-10-12T20:16:27.608Z,98696.40
2023-10-12T20:18:35.702Z,98700.95
2023-10-12T20:20:43.576Z,98702.38
2023-10-12T20:22:47.783Z,98702.23
2023-10-12T20:24:50.878Z,98698.58
2023-10-12T20:26:54.158Z,98702.02
2023-10-12T20:28:58.807Z,98697.56
2023-10-12T20:31:01.840Z,98693.35
2023-10-12T20:33:05.108Z,98692.09
2023-10-12T20:35:12.558Z,98694.61
2023-10-12T20:37:17.414Z,98694.83
2023-10-12T20:39:25.040Z,98690.33
2023-10-12T20:41:27.763Z,98692.38
2023-10-12T20:43:30.800Z,98694.73
2023-10-12T20:45:33.605Z,98695.52
2023-10-12T20:47:36.493Z,98694.75
2023-10-12T20:49:40.656Z,98702.16
2023-10-12T20:51:43.431Z,98704.42
2023-10-12T20:53:46.509Z,98705.58
2023-10-12T20:55:51.712Z,98704.79
2023-10-12T20:57:58.562Z,98703.59
2023-10-12T21:00:01.159Z,98699.21
2023-10-12T21:02:13.786Z,98696.69
2023-10-12T21:04:21.659Z,98693.48
2023-10-12T21:06:28.599Z,98689.48
2023-10-12T21:08:31.828Z,98694.17
2023-10-12T21:10:35.824Z,98703.58
2023-10-12T21:12:38.602Z,98701.23
2023-10-12T21:14:44.437Z,98710.56
2023-10-12T21:17:05.173Z,98709.04
2023-10-12T21:19:14.606Z,98709.19
2023-10-12T21:21:27.208Z,98711.40
2023-10-12T21:23:29.873Z,98709.34
2023-10-12T21:25:35.343Z,98714.35
2023-10-12T21:27:38.456Z,98712.06
2023-10-12T21:29:50.467Z,98710.76
2023-10-12T21:32:02.731Z,98707.52
2023-10-12T21:34:07.626Z,98701.25
2023-10-12T21:36:16.742Z,98695.73
2023-10-12T21:38:20.564Z,98692.00
2023-10-12T21:40:40.481Z,98689.23
2023-10-12T21:42:45.198Z,98686.21
2023-10-12T21:44:48.007Z,98689.36
2023-10-12T21:46:51.282Z,98690.09
2023-10-12T21:48:54.517Z,98693.77
2023-10-12T21:50:59.760Z,98688.31
2023-10-12T21:53:02.554Z,98692.30
2023-10-12T21:55:07.476Z,98695.71
2023-10-12T21:57:11.825Z,98691.02
2023-10-12T21:59:14.572Z,98694.50
2023-10-12T22:01:27.660Z,98690.36
2023-10-12T22:03:30.751Z,98691.98
2023-10-12T22:05:36.537Z,98689.96
2023-10-12T22:07:39.810Z,98694.77
2023-10-12T22:09:59.479Z,98689.46
2023-10-12T22:12:06.321Z,98685.95
2023-10-12T22:14:08.932Z,98684.81
2023-10-12T22:16:11.972Z,98682.85
2023-10-12T22:18:14.878Z,98680.64
2023-10-12T22:20:20.154Z,98678.21
2023-10-12T22:22:26.148Z,98680.70
2023-10-12T22:24:28.736Z,98682.88
2023-10-12T22:26:31.542Z,98684.48
2023-10-12T22:28:36.724Z,98683.60
2023-10-12T22:30:43.118Z,98684.05
2023-10-12T22:32:45.846Z,98686.67
2023-10-12T22:34:50.008Z,98694.81
2023-10-12T22:36:55.241Z,98695.69
2023-10-12T22:38:59.013Z,98698.00
2023-10-12T22:41:03.371Z,98695.88
2023-10-12T22:43:06.235Z,98698.84
2023-10-12T22:45:17.095Z,98694.21
2023-10-12T22:47:20.127Z,98695.96
2023-10-12T22:49:22.875Z,98700.95
2023-10-12T22:51:26.582Z,98701.77
2023-10-12T22:53:30.546Z,98698.52
2023-10-12T22:55:33.791Z,98707.33
2023-10-12T22:57:36.458Z,98705.09
2023-10-12T22:59:39.213Z,98703.21
2023-10-12T23:01:42.149Z,98711.40
2023-10-12T23:03:46.290Z,98716.77
2023-10-12T23:05:49.177Z,98713.66
2023-10-12T23:07:52.206Z,98718.93
2023-10-12T23:10:01.738Z,98715.78
2023-10-12T23:12:14.619Z,98706.79
2023-10-12T23:14:23.050Z,98707.59
2023-10-12T23:16:31.773Z,98707.40
2023-10-12T23:18:34.660Z,98707.32
2023-10-12T23:20:37.779Z,98706.27
2023-10-12T23:22:43.150Z,98705.41
2023-10-12T23:24:46.195Z,98710.54
2023-10-12T23:26:53.705Z,98712.85
2023-10-12T23:28:57.700Z,98710.20
2023-10-12T23:31:16.647Z,98720.02
2023-10-12T23:33:20.403Z,98724.23
2023-10-12T23:35:47.735Z,98723.57
2023-10-12T23:38:08.348Z,98720.13
2023-10-12T23:40:21.597Z,98718.45
2023-10-12T23:42:24.430Z,98719.71
2023-10-12T23:44:27.362Z,98717.75
2023-10-12T23:46:44.888Z,98715.16
2023-10-12T23:49:20.673Z,98716.11
2023-10-12T23:51:30.922Z,98711.33
2023-10-12T23:53:38.118Z,98704.88
2023-10-12T23:55:43.298Z,98701.63
2023-10-12T23:57:46.120Z,98699.11
2023-10-12T23:59:49.301Z,98692.38
